sensor_id;sensor_type;location;lat;lon;timestamp;pressure;altitude;pressure_sealevel;temperature
12007;BMP180;6062;47.294;12.182;2023-03-23T00:01:31;80102.00;;;9.10
12007;BMP180;6062;47.294;12.182;2023-03-23T00:04:03;80094.00;;;9.10
12007;BMP180;6062;47.294;12.182;2023-03-23T00:06:29;80094.00;;;9.10
12007;BMP180;6062;47.294;12.182;2023-03-23T00:08:59;80079.00;;;9.10
12007;BMP180;6062;47.294;12.182;2023-03-23T00:11:30;80100.00;;;9.10
12007;BMP180;6062;47.294;12.182;2023-03-23T00:13:59;80091.00;;;9.00
12007;BMP180;6062;47.294;12.182;2023-03-23T00:16:30;80097.00;;;9.00
12007;BMP180;6062;47.294;12.182;2023-03-23T00:19:04;80095.00;;;9.00
12007;BMP180;6062;47.294;12.182;2023-03-23T00:21:34;80103.00;;;8.90
12007;BMP180;6062;47.294;12.182;2023-03-23T00:24:04;80095.00;;;8.90
12007;BMP180;6062;47.294;12.182;2023-03-23T00:26:31;80088.00;;;8.90
12007;BMP180;6062;47.294;12.182;2023-03-23T00:29:01;80093.00;;;8.90
12007;BMP180;6062;47.294;12.182;2023-03-23T00:31:28;80089.00;;;8.90
12007;BMP180;6062;47.294;12.182;2023-03-23T00:33:59;80088.00;;;8.90
12007;BMP180;6062;47.294;12.182;2023-03-23T00:36:33;80102.00;;;8.90
12007;BMP180;6062;47.294;12.182;2023-03-23T00:39:02;80094.00;;;8.90
12007;BMP180;6062;47.294;12.182;2023-03-23T00:41:29;80081.00;;;8.90
12007;BMP180;6062;47.294;12.182;2023-03-23T00:43:57;80095.00;;;8.90
12007;BMP180;6062;47.294;12.182;2023-03-23T00:46:26;80090.00;;;8.90
12007;BMP180;6062;47.294;12.182;2023-03-23T00:48:54;80071.00;;;8.90
12007;BMP180;6062;47.294;12.182;2023-03-23T00:51:20;80081.00;;;8.90
12007;BMP180;6062;47.294;12.182;2023-03-23T00:53:46;80074.00;;;8.90
12007;BMP180;6062;47.294;12.182;2023-03-23T00:56:13;80077.00;;;8.90
12007;BMP180;6062;47.294;12.182;2023-03-23T00:58:39;80073.00;;;8.90
12007;BMP180;6062;47.294;12.182;2023-03-23T01:01:05;80059.00;;;8.90
12007;BMP180;6062;47.294;12.182;2023-03-23T01:03:32;80063.00;;;8.80
12007;BMP180;6062;47.294;12.182;2023-03-23T01:06:08;80071.00;;;8.80
12007;BMP180;6062;47.294;12.182;2023-03-23T01:08:39;80073.00;;;8.70
12007;BMP180;6062;47.294;12.182;2023-03-23T01:11:14;80069.00;;;8.70
12007;BMP180;6062;47.294;12.182;2023-03-23T01:13:41;80067.00;;;8.70
12007;BMP180;6062;47.294;12.182;2023-03-23T01:16:09;80054.00;;;8.70
12007;BMP180;6062;47.294;12.182;2023-03-23T01:18:35;80062.00;;;8.70
12007;BMP180;6062;47.294;12.182;2023-03-23T01:21:11;80055.00;;;8.70
12007;BMP180;6062;47.294;12.182;2023-03-23T01:23:38;80047.00;;;8.70
12007;BMP180;6062;47.294;12.182;2023-03-23T01:26:20;80048.00;;;8.70
12007;BMP180;6062;47.294;12.182;2023-03-23T01:28:47;80047.00;;;8.70
12007;BMP180;6062;47.294;12.182;2023-03-23T01:31:20;80047.00;;;8.60
12007;BMP180;6062;47.294;12.182;2023-03-23T01:33:47;80043.00;;;8.70
12007;BMP180;6062;47.294;12.182;2023-03-23T01:36:21;80041.00;;;8.60
12007;BMP180;6062;47.294;12.182;2023-03-23T01:38:49;80048.00;;;8.70
12007;BMP180;6062;47.294;12.182;2023-03-23T01:41:17;80038.00;;;8.60
12007;BMP180;6062;47.294;12.182;2023-03-23T01:46:32;80035.00;;;8.60
12007;BMP180;6062;47.294;12.182;2023-03-23T01:49:06;80033.00;;;8.70
12007;BMP180;6062;47.294;12.182;2023-03-23T01:51:40;80037.00;;;8.70
12007;BMP180;6062;47.294;12.182;2023-03-23T01:54:13;80029.00;;;8.80
12007;BMP180;6062;47.294;12.182;2023-03-23T01:56:54;80022.00;;;8.80
12007;BMP180;6062;47.294;12.182;2023-03-23T01:59:22;80024.00;;;8.80
12007;BMP180;6062;47.294;12.182;2023-03-23T02:01:49;80020.00;;;8.80
12007;BMP180;6062;47.294;12.182;2023-03-23T02:04:18;80025.00;;;8.90
12007;BMP180;6062;47.294;12.182;2023-03-23T02:06:45;80025.00;;;8.90
12007;BMP180;6062;47.294;12.182;2023-03-23T02:09:13;80031.00;;;8.90
12007;BMP180;6062;47.294;12.182;2023-03-23T02:11:39;80022.00;;;8.90
12007;BMP180;6062;47.294;12.182;2023-03-23T02:14:05;80025.00;;;9.00
12007;BMP180;6062;47.294;12.182;2023-03-23T02:16:43;80030.00;;;9.00
12007;BMP180;6062;47.294;12.182;2023-03-23T02:31:47;80011.00;;;8.80
12007;BMP180;6062;47.294;12.182;2023-03-23T02:34:32;80005.00;;;8.80
12007;BMP180;6062;47.294;12.182;2023-03-23T02:37:11;80003.00;;;8.90
12007;BMP180;6062;47.294;12.182;2023-03-23T02:39:54;80001.00;;;8.90
12007;BMP180;6062;47.294;12.182;2023-03-23T02:42:28;80001.00;;;8.90
12007;BMP180;6062;47.294;12.182;2023-03-23T02:45:03;79993.00;;;8.90
12007;BMP180;6062;47.294;12.182;2023-03-23T02:47:30;79999.00;;;8.90
12007;BMP180;6062;47.294;12.182;2023-03-23T02:49:59;79993.00;;;8.90
12007;BMP180;6062;47.294;12.182;2023-03-23T02:52:29;79996.00;;;8.80
12007;BMP180;6062;47.294;12.182;2023-03-23T02:54:57;79997.00;;;8.80
12007;BMP180;6062;47.294;12.182;2023-03-23T02:57:25;79999.00;;;8.80
12007;BMP180;6062;47.294;12.182;2023-03-23T02:59:52;79998.00;;;8.80
12007;BMP180;6062;47.294;12.182;2023-03-23T03:02:30;79989.00;;;8.80
12007;BMP180;6062;47.294;12.182;2023-03-23T03:05:40;79997.00;;;8.80
12007;BMP180;6062;47.294;12.182;2023-03-23T03:08:44;79989.00;;;8.80
12007;BMP180;6062;47.294;12.182;2023-03-23T03:11:14;79995.00;;;8.80
12007;BMP180;6062;47.294;12.182;2023-03-23T03:14:00;79994.00;;;8.80
12007;BMP180;6062;47.294;12.182;2023-03-23T03:16:46;79990.00;;;8.80
12007;BMP180;6062;47.294;12.182;2023-03-23T03:21:54;79997.00;;;8.80
12007;BMP180;6062;47.294;12.182;2023-03-23T03:24:26;80004.00;;;8.80
12007;BMP180;6062;47.294;12.182;2023-03-23T03:26:56;79997.00;;;8.90
12007;BMP180;6062;47.294;12.182;2023-03-23T03:29:31;80006.00;;;8.90
12007;BMP180;6062;47.294;12.182;2023-03-23T03:31:59;79998.00;;;8.90
12007;BMP180;6062;47.294;12.182;2023-03-23T03:34:27;79998.00;;;9.00
12007;BMP180;6062;47.294;12.182;2023-03-23T03:36:55;80011.00;;;9.00
12007;BMP180;6062;47.294;12.182;2023-03-23T03:39:25;80009.00;;;9.00
12007;BMP180;6062;47.294;12.182;2023-03-23T03:41:51;80008.00;;;8.90
12007;BMP180;6062;47.294;12.182;2023-03-23T03:44:17;80006.00;;;8.90
12007;BMP180;6062;47.294;12.182;2023-03-23T03:46:43;80011.00;;;8.80
12007;BMP180;6062;47.294;12.182;2023-03-23T03:49:10;80016.00;;;8.70
12007;BMP180;6062;47.294;12.182;2023-03-23T03:51:39;80013.00;;;8.60
12007;BMP180;6062;47.294;12.182;2023-03-23T03:54:06;80014.00;;;8.50
12007;BMP180;6062;47.294;12.182;2023-03-23T03:56:31;80006.00;;;8.40
12007;BMP180;6062;47.294;12.182;2023-03-23T03:59:02;80006.00;;;8.30
12007;BMP180;6062;47.294;12.182;2023-03-23T04:01:28;80008.00;;;8.30
12007;BMP180;6062;47.294;12.182;2023-03-23T04:03:55;80012.00;;;8.30
12007;BMP180;6062;47.294;12.182;2023-03-23T04:06:22;80011.00;;;8.20
12007;BMP180;6062;47.294;12.182;2023-03-23T04:08:48;80012.00;;;8.20
12007;BMP180;6062;47.294;12.182;2023-03-23T04:11:14;80011.00;;;8.20
12007;BMP180;6062;47.294;12.182;2023-03-23T04:13:41;80014.00;;;8.20
12007;BMP180;6062;47.294;12.182;2023-03-23T04:16:07;80011.00;;;8.10
12007;BMP180;6062;47.294;12.182;2023-03-23T04:18:35;80013.00;;;8.10
12007;BMP180;6062;47.294;12.182;2023-03-23T04:21:02;80019.00;;;8.00
12007;BMP180;6062;47.294;12.182;2023-03-23T04:23:30;80014.00;;;8.00
12007;BMP180;6062;47.294;12.182;2023-03-23T04:25:59;80015.00;;;8.00
12007;BMP180;6062;47.294;12.182;2023-03-23T04:28:26;80024.00;;;8.00
12007;BMP180;6062;47.294;12.182;2023-03-23T04:30:54;80026.00;;;8.00
12007;BMP180;6062;47.294;12.182;2023-03-23T04:33:25;80031.00;;;7.90
12007;BMP180;6062;47.294;12.182;2023-03-23T04:35:54;80036.00;;;7.90
12007;BMP180;6062;47.294;12.182;2023-03-23T04:38:21;80028.00;;;7.90
12007;BMP180;6062;47.294;12.182;2023-03-23T04:40:52;80041.00;;;7.90
12007;BMP180;6062;47.294;12.182;2023-03-23T04:43:21;80043.00;;;7.90
12007;BMP180;6062;47.294;12.182;2023-03-23T04:45:56;80036.00;;;7.90
12007;BMP180;6062;47.294;12.182;2023-03-23T04:48:28;80043.00;;;7.90
12007;BMP180;6062;47.294;12.182;2023-03-23T04:50:55;80043.00;;;7.90
12007;BMP180;6062;47.294;12.182;2023-03-23T04:53:21;80045.00;;;7.90
12007;BMP180;6062;47.294;12.182;2023-03-23T04:55:48;80045.00;;;7.90
12007;BMP180;6062;47.294;12.182;2023-03-23T04:58:16;80043.00;;;7.90
12007;BMP180;6062;47.294;12.182;2023-03-23T05:00:43;80047.00;;;7.80
12007;BMP180;6062;47.294;12.182;2023-03-23T05:03:10;80045.00;;;7.80
12007;BMP180;6062;47.294;12.182;2023-03-23T05:05:36;80041.00;;;7.80
12007;BMP180;6062;47.294;12.182;2023-03-23T05:08:03;80033.00;;;7.80
12007;BMP180;6062;47.294;12.182;2023-03-23T05:10:29;80038.00;;;7.80
12007;BMP180;6062;47.294;12.182;2023-03-23T05:12:55;80030.00;;;7.70
12007;BMP180;6062;47.294;12.182;2023-03-23T05:15:21;80037.00;;;7.70
12007;BMP180;6062;47.294;12.182;2023-03-23T05:17:47;80038.00;;;7.70
12007;BMP180;6062;47.294;12.182;2023-03-23T05:20:16;80040.00;;;7.80
12007;BMP180;6062;47.294;12.182;2023-03-23T05:22:46;80035.00;;;7.80
12007;BMP180;6062;47.294;12.182;2023-03-23T05:25:17;80049.00;;;7.80
12007;BMP180;6062;47.294;12.182;2023-03-23T05:27:48;80046.00;;;7.80
12007;BMP180;6062;47.294;12.182;2023-03-23T05:30:19;80045.00;;;7.80
12007;BMP180;6062;47.294;12.182;2023-03-23T05:32:47;80050.00;;;7.80
12007;BMP180;6062;47.294;12.182;2023-03-23T05:35:18;80054.00;;;7.80
12007;BMP180;6062;47.294;12.182;2023-03-23T05:37:44;80057.00;;;7.80
12007;BMP180;6062;47.294;12.182;2023-03-23T05:40:11;80048.00;;;7.80
12007;BMP180;6062;47.294;12.182;2023-03-23T05:42:39;80065.00;;;7.80
12007;BMP180;6062;47.294;12.182;2023-03-23T05:45:09;80065.00;;;7.90
12007;BMP180;6062;47.294;12.182;2023-03-23T05:47:37;80075.00;;;7.90
12007;BMP180;6062;47.294;12.182;2023-03-23T05:50:03;80059.00;;;7.90
12007;BMP180;6062;47.294;12.182;2023-03-23T05:52:30;80055.00;;;8.00
12007;BMP180;6062;47.294;12.182;2023-03-23T05:54:58;80057.00;;;8.00
12007;BMP180;6062;47.294;12.182;2023-03-23T05:57:24;80075.00;;;8.00
12007;BMP180;6062;47.294;12.182;2023-03-23T05:59:50;80073.00;;;8.00
12007;BMP180;6062;47.294;12.182;2023-03-23T06:02:16;80072.00;;;8.10
12007;BMP180;6062;47.294;12.182;2023-03-23T06:04:42;80073.00;;;8.10
12007;BMP180;6062;47.294;12.182;2023-03-23T06:07:08;80077.00;;;8.10
12007;BMP180;6062;47.294;12.182;2023-03-23T06:09:40;80072.00;;;8.10
12007;BMP180;6062;47.294;12.182;2023-03-23T06:12:08;80071.00;;;8.10
12007;BMP180;6062;47.294;12.182;2023-03-23T06:14:36;80082.00;;;8.10
12007;BMP180;6062;47.294;12.182;2023-03-23T06:17:02;80080.00;;;8.10
12007;BMP180;6062;47.294;12.182;2023-03-23T06:19:28;80076.00;;;8.10
12007;BMP180;6062;47.294;12.182;2023-03-23T06:21:54;80082.00;;;8.10
12007;BMP180;6062;47.294;12.182;2023-03-23T06:24:21;80072.00;;;8.10
12007;BMP180;6062;47.294;12.182;2023-03-23T06:26:47;80074.00;;;8.20
12007;BMP180;6062;47.294;12.182;2023-03-23T06:29:13;80068.00;;;8.40
12007;BMP180;6062;47.294;12.182;2023-03-23T06:31:48;80070.00;;;8.70
12007;BMP180;6062;47.294;12.182;2023-03-23T06:34:14;80069.00;;;9.20
12007;BMP180;6062;47.294;12.182;2023-03-23T06:36:40;80069.00;;;10.00
12007;BMP180;6062;47.294;12.182;2023-03-23T06:39:09;80079.00;;;10.90
12007;BMP180;6062;47.294;12.182;2023-03-23T06:41:35;80087.00;;;11.90
12007;BMP180;6062;47.294;12.182;2023-03-23T06:44:01;80091.00;;;12.80
12007;BMP180;6062;47.294;12.182;2023-03-23T06:46:27;80092.00;;;13.60
12007;BMP180;6062;47.294;12.182;2023-03-23T06:48:54;80089.00;;;14.40
12007;BMP180;6062;47.294;12.182;2023-03-23T06:51:20;80090.00;;;15.20
12007;BMP180;6062;47.294;12.182;2023-03-23T06:53:47;80088.00;;;15.70
12007;BMP180;6062;47.294;12.182;2023-03-23T06:56:13;80083.00;;;16.10
12007;BMP180;6062;47.294;12.182;2023-03-23T06:58:40;80077.00;;;16.60
12007;BMP180;6062;47.294;12.182;2023-03-23T07:01:08;80082.00;;;17.30
12007;BMP180;6062;47.294;12.182;2023-03-23T07:03:35;80086.00;;;18.10
12007;BMP180;6062;47.294;12.182;2023-03-23T07:06:01;80078.00;;;19.00
12007;BMP180;6062;47.294;12.182;2023-03-23T07:08:27;80076.00;;;20.00
12007;BMP180;6062;47.294;12.182;2023-03-23T07:10:54;80082.00;;;21.10
12007;BMP180;6062;47.294;12.182;2023-03-23T07:13:21;80087.00;;;22.10
12007;BMP180;6062;47.294;12.182;2023-03-23T07:15:46;80091.00;;;23.10
12007;BMP180;6062;47.294;12.182;2023-03-23T07:18:14;80095.00;;;23.80
12007;BMP180;6062;47.294;12.182;2023-03-23T07:20:40;80078.00;;;24.00
12007;BMP180;6062;47.294;12.182;2023-03-23T07:23:06;80081.00;;;23.70
12007;BMP180;6062;47.294;12.182;2023-03-23T07:25:33;80067.00;;;23.20
12007;BMP180;6062;47.294;12.182;2023-03-23T07:28:00;80078.00;;;22.60
12007;BMP180;6062;47.294;12.182;2023-03-23T07:30:27;80077.00;;;22.00
12007;BMP180;6062;47.294;12.182;2023-03-23T07:32:54;80074.00;;;21.30
12007;BMP180;6062;47.294;12.182;2023-03-23T07:35:20;80072.00;;;20.60
12007;BMP180;6062;47.294;12.182;2023-03-23T07:37:46;80068.00;;;20.00
12007;BMP180;6062;47.294;12.182;2023-03-23T07:40:16;80067.00;;;19.40
12007;BMP180;6062;47.294;12.182;2023-03-23T07:42:51;80065.00;;;18.90
12007;BMP180;6062;47.294;12.182;2023-03-23T07:45:18;80055.00;;;18.40
12007;BMP180;6062;47.294;12.182;2023-03-23T07:47:43;80052.00;;;18.10
12007;BMP180;6062;47.294;12.182;2023-03-23T07:50:10;80060.00;;;17.80
12007;BMP180;6062;47.294;12.182;2023-03-23T07:52:38;80055.00;;;17.50
12007;BMP180;6062;47.294;12.182;2023-03-23T07:55:07;80059.00;;;17.30
12007;BMP180;6062;47.294;12.182;2023-03-23T07:57:34;80065.00;;;17.00
12007;BMP180;6062;47.294;12.182;2023-03-23T08:00:00;80068.00;;;16.90
12007;BMP180;6062;47.294;12.182;2023-03-23T08:02:28;80068.00;;;16.70
12007;BMP180;6062;47.294;12.182;2023-03-23T08:04:57;80078.00;;;16.60
12007;BMP180;6062;47.294;12.182;2023-03-23T08:07:26;80081.00;;;16.50
12007;BMP180;6062;47.294;12.182;2023-03-23T08:09:51;80082.00;;;16.80
12007;BMP180;6062;47.294;12.182;2023-03-23T08:12:17;80082.00;;;17.00
12007;BMP180;6062;47.294;12.182;2023-03-23T08:14:43;80095.00;;;17.20
12007;BMP180;6062;47.294;12.182;2023-03-23T08:17:09;80099.00;;;17.30
12007;BMP180;6062;47.294;12.182;2023-03-23T08:19:36;80094.00;;;17.40
12007;BMP180;6062;47.294;12.182;2023-03-23T08:22:05;80098.00;;;17.70
12007;BMP180;6062;47.294;12.182;2023-03-23T08:24:32;80104.00;;;17.90
12007;BMP180;6062;47.294;12.182;2023-03-23T08:26:59;80100.00;;;18.10
12007;BMP180;6062;47.294;12.182;2023-03-23T08:29:26;80102.00;;;18.30
12007;BMP180;6062;47.294;12.182;2023-03-23T08:31:52;80100.00;;;18.40
12007;BMP180;6062;47.294;12.182;2023-03-23T08:34:17;80117.00;;;18.60
12007;BMP180;6062;47.294;12.182;2023-03-23T08:36:43;80110.00;;;18.90
12007;BMP180;6062;47.294;12.182;2023-03-23T08:39:12;80103.00;;;19.10
12007;BMP180;6062;47.294;12.182;2023-03-23T08:41:40;80110.00;;;19.30
12007;BMP180;6062;47.294;12.182;2023-03-23T08:44:06;80116.00;;;19.60
12007;BMP180;6062;47.294;12.182;2023-03-23T08:46:33;80110.00;;;20.10
12007;BMP180;6062;47.294;12.182;2023-03-23T08:49:00;80118.00;;;20.80
12007;BMP180;6062;47.294;12.182;2023-03-23T08:51:26;80119.00;;;21.30
12007;BMP180;6062;47.294;12.182;2023-03-23T08:53:51;80125.00;;;21.80
12007;BMP180;6062;47.294;12.182;2023-03-23T08:56:18;80121.00;;;22.20
12007;BMP180;6062;47.294;12.182;2023-03-23T08:58:43;80124.00;;;22.50
12007;BMP180;6062;47.294;12.182;2023-03-23T09:01:09;80131.00;;;22.70
12007;BMP180;6062;47.294;12.182;2023-03-23T09:03:37;80129.00;;;23.10
12007;BMP180;6062;47.294;12.182;2023-03-23T09:06:07;80134.00;;;23.40
12007;BMP180;6062;47.294;12.182;2023-03-23T09:08:33;80141.00;;;23.70
12007;BMP180;6062;47.294;12.182;2023-03-23T09:11:07;80139.00;;;24.10
12007;BMP180;6062;47.294;12.182;2023-03-23T09:13:36;80143.00;;;24.40
12007;BMP180;6062;47.294;12.182;2023-03-23T09:16:03;80140.00;;;24.70
12007;BMP180;6062;47.294;12.182;2023-03-23T09:18:30;80152.00;;;24.80
12007;BMP180;6062;47.294;12.182;2023-03-23T09:20:59;80140.00;;;24.90
12007;BMP180;6062;47.294;12.182;2023-03-23T09:23:25;80142.00;;;24.90
12007;BMP180;6062;47.294;12.182;2023-03-23T09:25:51;80140.00;;;24.90
12007;BMP180;6062;47.294;12.182;2023-03-23T09:28:18;80143.00;;;25.00
12007;BMP180;6062;47.294;12.182;2023-03-23T09:30:44;80148.00;;;25.00
12007;BMP180;6062;47.294;12.182;2023-03-23T09:33:11;80149.00;;;25.00
12007;BMP180;6062;47.294;12.182;2023-03-23T09:35:38;80157.00;;;25.00
12007;BMP180;6062;47.294;12.182;2023-03-23T09:38:05;80150.00;;;25.00
12007;BMP180;6062;47.294;12.182;2023-03-23T09:46:40;80155.00;;;24.90
12007;BMP180;6062;47.294;12.182;2023-03-23T09:49:14;80165.00;;;24.70
12007;BMP180;6062;47.294;12.182;2023-03-23T09:51:59;80165.00;;;24.50
12007;BMP180;6062;47.294;12.182;2023-03-23T09:54:35;80163.00;;;24.20
12007;BMP180;6062;47.294;12.182;2023-03-23T09:57:03;80155.00;;;24.00
12007;BMP180;6062;47.294;12.182;2023-03-23T09:59:39;80158.00;;;23.80
12007;BMP180;6062;47.294;12.182;2023-03-23T10:04:49;80156.00;;;23.90
12007;BMP180;6062;47.294;12.182;2023-03-23T10:07:23;80157.00;;;24.10
12007;BMP180;6062;47.294;12.182;2023-03-23T10:09:57;80160.00;;;24.40
12007;BMP180;6062;47.294;12.182;2023-03-23T10:12:56;80157.00;;;24.70
12007;BMP180;6062;47.294;12.182;2023-03-23T10:15:33;80163.00;;;24.90
12007;BMP180;6062;47.294;12.182;2023-03-23T10:20:57;80165.00;;;25.30
12007;BMP180;6062;47.294;12.182;2023-03-23T10:24:03;80166.00;;;25.40
12007;BMP180;6062;47.294;12.182;2023-03-23T10:29:30;80157.00;;;25.60
12007;BMP180;6062;47.294;12.182;2023-03-23T10:32:34;80159.00;;;25.60
12007;BMP180;6062;47.294;12.182;2023-03-23T10:35:07;80165.00;;;25.50
12007;BMP180;6062;47.294;12.182;2023-03-23T10:37:43;80150.00;;;25.40
12007;BMP180;6062;47.294;12.182;2023-03-23T10:40:18;80147.00;;;25.40
12007;BMP180;6062;47.294;12.182;2023-03-23T10:42:45;80151.00;;;25.20
12007;BMP180;6062;47.294;12.182;2023-03-23T10:45:32;80156.00;;;25.10
12007;BMP180;6062;47.294;12.182;2023-03-23T10:48:14;80149.00;;;24.90
12007;BMP180;6062;47.294;12.182;2023-03-23T10:50:44;80154.00;;;24.70
12007;BMP180;6062;47.294;12.182;2023-03-23T10:53:25;80153.00;;;24.70
12007;BMP180;6062;47.294;12.182;2023-03-23T10:55:53;80153.00;;;24.60
12007;BMP180;6062;47.294;12.182;2023-03-23T10:58:38;80147.00;;;24.50
12007;BMP180;6062;47.294;12.182;2023-03-23T11:01:05;80149.00;;;24.30
12007;BMP180;6062;47.294;12.182;2023-03-23T11:06:09;80146.00;;;24.10
12007;BMP180;6062;47.294;12.182;2023-03-23T11:08:48;80149.00;;;24.00
12007;BMP180;6062;47.294;12.182;2023-03-23T11:11:39;80144.00;;;23.90
12007;BMP180;6062;47.294;12.182;2023-03-23T11:14:27;80146.00;;;23.80
12007;BMP180;6062;47.294;12.182;2023-03-23T11:16:59;80140.00;;;23.80
12007;BMP180;6062;47.294;12.182;2023-03-23T11:19:36;80152.00;;;23.70
12007;BMP180;6062;47.294;12.182;2023-03-23T11:22:19;80157.00;;;23.70
12007;BMP180;6062;47.294;12.182;2023-03-23T11:24:52;80156.00;;;23.60
12007;BMP180;6062;47.294;12.182;2023-03-23T11:27:19;80155.00;;;23.60
12007;BMP180;6062;47.294;12.182;2023-03-23T11:30:11;80154.00;;;23.60
12007;BMP180;6062;47.294;12.182;2023-03-23T11:32:45;80156.00;;;23.50
12007;BMP180;6062;47.294;12.182;2023-03-23T11:35:25;80155.00;;;23.50
12007;BMP180;6062;47.294;12.182;2023-03-23T11:37:58;80168.00;;;23.40
12007;BMP180;6062;47.294;12.182;2023-03-23T11:40:27;80154.00;;;23.40
12007;BMP180;6062;47.294;12.182;2023-03-23T11:43:06;80155.00;;;23.30
12007;BMP180;6062;47.294;12.182;2023-03-23T11:45:47;80163.00;;;23.30
12007;BMP180;6062;47.294;12.182;2023-03-23T11:48:40;80163.00;;;23.20
12007;BMP180;6062;47.294;12.182;2023-03-23T11:51:27;80167.00;;;23.10
12007;BMP180;6062;47.294;12.182;2023-03-23T11:56:52;80167.00;;;23.00
12007;BMP180;6062;47.294;12.182;2023-03-23T11:59:32;80165.00;;;23.00
12007;BMP180;6062;47.294;12.182;2023-03-23T12:19:51;80171.00;;;22.30
12007;BMP180;6062;47.294;12.182;2023-03-23T12:23:32;80174.00;;;22.10
12007;BMP180;6062;47.294;12.182;2023-03-23T12:25:55;80165.00;;;21.80
12007;BMP180;6062;47.294;12.182;2023-03-23T12:34:41;80167.00;;;21.00
12007;BMP180;6062;47.294;12.182;2023-03-23T12:37:35;80153.00;;;20.80
12007;BMP180;6062;47.294;12.182;2023-03-23T12:40:35;80157.00;;;20.40
12007;BMP180;6062;47.294;12.182;2023-03-23T12:43:35;80147.00;;;20.20
12007;BMP180;6062;47.294;12.182;2023-03-23T12:46:36;80139.00;;;20.10
12007;BMP180;6062;47.294;12.182;2023-03-23T12:49:19;80146.00;;;20.00
12007;BMP180;6062;47.294;12.182;2023-03-23T12:52:03;80133.00;;;19.80
12007;BMP180;6062;47.294;12.182;2023-03-23T12:54:42;80131.00;;;19.70
12007;BMP180;6062;47.294;12.182;2023-03-23T13:00:05;80136.00;;;19.60
12007;BMP180;6062;47.294;12.182;2023-03-23T13:02:54;80126.00;;;19.60
12007;BMP180;6062;47.294;12.182;2023-03-23T13:08:16;80121.00;;;19.80
12007;BMP180;6062;47.294;12.182;2023-03-23T13:10:50;80120.00;;;19.90
12007;BMP180;6062;47.294;12.182;2023-03-23T13:13:22;80118.00;;;20.00
12007;BMP180;6062;47.294;12.182;2023-03-23T13:21:43;80121.00;;;20.20
12007;BMP180;6062;47.294;12.182;2023-03-23T13:24:15;80123.00;;;20.20
12007;BMP180;6062;47.294;12.182;2023-03-23T13:26:43;80121.00;;;20.20
12007;BMP180;6062;47.294;12.182;2023-03-23T13:29:16;80117.00;;;20.20
12007;BMP180;6062;47.294;12.182;2023-03-23T13:31:45;80113.00;;;20.20
12007;BMP180;6062;47.294;12.182;2023-03-23T13:34:22;80120.00;;;20.10
12007;BMP180;6062;47.294;12.182;2023-03-23T13:37:10;80108.00;;;20.10
12007;BMP180;6062;47.294;12.182;2023-03-23T13:39:52;80115.00;;;20.10
12007;BMP180;6062;47.294;12.182;2023-03-23T13:42:26;80116.00;;;20.10
12007;BMP180;6062;47.294;12.182;2023-03-23T13:45:20;80123.00;;;20.10
12007;BMP180;6062;47.294;12.182;2023-03-23T13:47:47;80112.00;;;20.00
12007;BMP180;6062;47.294;12.182;2023-03-23T13:50:28;80106.00;;;20.00
12007;BMP180;6062;47.294;12.182;2023-03-23T13:53:01;80108.00;;;19.90
12007;BMP180;6062;47.294;12.182;2023-03-23T13:56:03;80098.00;;;19.70
12007;BMP180;6062;47.294;12.182;2023-03-23T13:58:30;80099.00;;;19.60
12007;BMP180;6062;47.294;12.182;2023-03-23T14:01:18;80093.00;;;19.60
12007;BMP180;6062;47.294;12.182;2023-03-23T14:03:49;80090.00;;;19.50
12007;BMP180;6062;47.294;12.182;2023-03-23T14:06:23;80092.00;;;19.30
12007;BMP180;6062;47.294;12.182;2023-03-23T14:08:54;80089.00;;;19.00
12007;BMP180;6062;47.294;12.182;2023-03-23T14:11:27;80086.00;;;18.70
12007;BMP180;6062;47.294;12.182;2023-03-23T14:14:03;80079.00;;;18.60
12007;BMP180;6062;47.294;12.182;2023-03-23T14:16:41;80077.00;;;18.40
12007;BMP180;6062;47.294;12.182;2023-03-23T14:19:17;80086.00;;;18.30
12007;BMP180;6062;47.294;12.182;2023-03-23T14:21:54;80089.00;;;18.20
12007;BMP180;6062;47.294;12.182;2023-03-23T14:24:25;80087.00;;;18.00
12007;BMP180;6062;47.294;12.182;2023-03-23T14:27:01;80086.00;;;17.90
12007;BMP180;6062;47.294;12.182;2023-03-23T14:29:27;80082.00;;;17.80
12007;BMP180;6062;47.294;12.182;2023-03-23T14:31:57;80081.00;;;17.80
12007;BMP180;6062;47.294;12.182;2023-03-23T14:34:28;80079.00;;;17.70
12007;BMP180;6062;47.294;12.182;2023-03-23T14:36:55;80081.00;;;17.60
12007;BMP180;6062;47.294;12.182;2023-03-23T14:39:29;80080.00;;;17.50
12007;BMP180;6062;47.294;12.182;2023-03-23T14:42:03;80092.00;;;17.40
12007;BMP180;6062;47.294;12.182;2023-03-23T14:44:33;80087.00;;;17.20
12007;BMP180;6062;47.294;12.182;2023-03-23T14:47:10;80098.00;;;17.10
12007;BMP180;6062;47.294;12.182;2023-03-23T14:49:41;80097.00;;;16.90
12007;BMP180;6062;47.294;12.182;2023-03-23T14:52:17;80095.00;;;16.80
12007;BMP180;6062;47.294;12.182;2023-03-23T14:54:45;80101.00;;;16.70
12007;BMP180;6062;47.294;12.182;2023-03-23T14:57:29;80096.00;;;16.60
12007;BMP180;6062;47.294;12.182;2023-03-23T14:59:56;80088.00;;;16.50
12007;BMP180;6062;47.294;12.182;2023-03-23T15:02:35;80098.00;;;16.40
12007;BMP180;6062;47.294;12.182;2023-03-23T15:05:23;80093.00;;;16.30
12007;BMP180;6062;47.294;12.182;2023-03-23T15:07:59;80095.00;;;16.20
12007;BMP180;6062;47.294;12.182;2023-03-23T15:10:26;80091.00;;;16.20
12007;BMP180;6062;47.294;12.182;2023-03-23T15:12:52;80094.00;;;16.20
12007;BMP180;6062;47.294;12.182;2023-03-23T15:15:30;80087.00;;;16.10
12007;BMP180;6062;47.294;12.182;2023-03-23T15:17:58;80097.00;;;16.10
12007;BMP180;6062;47.294;12.182;2023-03-23T15:23:13;80083.00;;;16.00
12007;BMP180;6062;47.294;12.182;2023-03-23T15:25:47;80088.00;;;16.00
12007;BMP180;6062;47.294;12.182;2023-03-23T15:28:30;80078.00;;;15.90
12007;BMP180;6062;47.294;12.182;2023-03-23T15:31:03;80083.00;;;15.90
12007;BMP180;6062;47.294;12.182;2023-03-23T15:33:37;80095.00;;;15.80
12007;BMP180;6062;47.294;12.182;2023-03-23T15:36:32;80079.00;;;15.60
12007;BMP180;6062;47.294;12.182;2023-03-23T15:38:58;80082.00;;;15.50
12007;BMP180;6062;47.294;12.182;2023-03-23T15:41:28;80092.00;;;15.40
12007;BMP180;6062;47.294;12.182;2023-03-23T15:44:09;80078.00;;;15.20
12007;BMP180;6062;47.294;12.182;2023-03-23T15:46:35;80075.00;;;15.10
12007;BMP180;6062;47.294;12.182;2023-03-23T15:51:30;80073.00;;;14.80
12007;BMP180;6062;47.294;12.182;2023-03-23T15:53:56;80060.00;;;14.70
12007;BMP180;6062;47.294;12.182;2023-03-23T15:56:24;80064.00;;;14.60
12007;BMP180;6062;47.294;12.182;2023-03-23T15:58:51;80070.00;;;14.50